Time;durP1;ratioP1;P1;durP2;ratioP2;P2;SDS_P1;SDS_P2;PMS_P1;PMS_P2;Temp;Humidity;BMP_temperature;BMP_pressure;BME280_temperature;BME280_humidity;BME280_pressure;Samples;Min_cycle;Max_cycle;Signal;HPM_P1;HPM_P2
2021/06/05 00:00:41;;;;;;;;;;;28.20;61.00;;;;;;5123728;28;19914;-36
2021/06/05 00:03:07;;;;;;;;;;;28.20;61.00;;;;;;5123538;28;19956;-35
2021/06/05 00:05:37;;;;;;;;;;;28.20;61.00;;;;;;5123738;28;20343;-35
2021/06/05 00:08:03;;;;;;;;;;;28.20;60.90;;;;;;5124004;28;20279;-35
2021/06/05 00:10:31;;;;;;;;;;;28.20;60.90;;;;;;5132324;27;19911;-35
2021/06/05 00:12:57;;;;;;;;;;;28.20;60.90;;;;;;5144326;27;19914;-35
2021/06/05 00:15:24;;;;;;;;;;;28.20;60.90;;;;;;5143739;27;19912;-35
2021/06/05 00:17:50;;;;;;;;;;;28.20;60.90;;;;;;5123441;28;19957;-35
2021/06/05 00:20:16;;;;;;;;;;;28.20;60.90;;;;;;5123505;28;20017;-35
2021/06/05 00:22:42;;;;;;;;;;;28.20;61.00;;;;;;5123407;28;19923;-35
2021/06/05 00:25:09;;;;;;;;;;;28.20;60.90;;;;;;5123730;28;19907;-35
2021/06/05 00:27:35;;;;;;;;;;;28.10;60.80;;;;;;5123502;28;19933;-35
2021/06/05 00:30:04;;;;;;;;;;;28.10;60.90;;;;;;5123505;28;19912;-35
2021/06/05 00:32:30;;;;;;;;;;;28.10;60.90;;;;;;5123009;28;19915;-35
2021/06/05 00:34:56;;;;;;;;;;;28.10;61.00;;;;;;5123665;28;19916;-35
2021/06/05 00:37:22;;;;;;;;;;;28.10;60.90;;;;;;5123682;28;19940;-36
2021/06/05 00:39:48;;;;;;;;;;;28.10;61.00;;;;;;5126392;28;19911;-35
2021/06/05 00:42:14;;;;;;;;;;;28.10;61.00;;;;;;5143886;28;19927;-35
2021/06/05 00:44:39;;;;;;;;;;;28.00;60.90;;;;;;5143998;28;19933;-35
2021/06/05 00:47:05;;;;;;;;;;;28.10;61.00;;;;;;5110425;28;19923;-34
2021/06/05 00:49:31;;;;;;;;;;;28.10;61.00;;;;;;5123792;28;19912;-36
2021/06/05 00:51:57;;;;;;;;;;;28.10;61.00;;;;;;5126063;28;20006;-35
2021/06/05 00:54:23;;;;;;;;;;;28.00;60.90;;;;;;5109964;28;20688;-35
2021/06/05 00:56:51;;;;;;;;;;;28.00;60.90;;;;;;5123176;28;19919;-35
2021/06/05 00:59:17;;;;;;;;;;;28.00;60.90;;;;;;5123342;28;19912;-35
2021/06/05 01:01:43;;;;;;;;;;;28.00;61.00;;;;;;5122916;28;19922;-35
2021/06/05 01:04:10;;;;;;;;;;;28.00;61.00;;;;;;5124292;28;19920;-35
2021/06/05 01:06:36;;;;;;;;;;;28.00;61.00;;;;;;5127539;28;19922;-35
2021/06/05 01:09:10;;;;;;;;;;;28.00;61.00;;;;;;5127378;28;19944;-35
2021/06/05 01:11:41;;;;;;;;;;;27.90;60.90;;;;;;5126899;27;19968;-35
2021/06/05 01:14:16;;;;;;;;;;;27.90;60.90;;;;;;5129282;27;19911;-35
2021/06/05 01:16:43;;;;;;;;;;;27.90;60.90;;;;;;5135725;27;19912;-35
2021/06/05 01:19:26;;;;;;;;;;;27.90;60.90;;;;;;5126950;28;19912;-35
2021/06/05 01:21:58;;;;;;;;;;;27.90;61.00;;;;;;5108303;28;19920;-35
2021/06/05 01:24:33;;;;;;;;;;;27.90;61.00;;;;;;5126940;28;19911;-35
2021/06/05 01:27:02;;;;;;;;;;;27.90;61.00;;;;;;5129531;27;19912;-35
2021/06/05 01:29:29;;;;;;;;;;;27.90;61.00;;;;;;5126812;28;19974;-35
2021/06/05 01:31:58;;;;;;;;;;;27.80;61.00;;;;;;5126848;27;19940;-35
2021/06/05 01:34:26;;;;;;;;;;;27.80;61.00;;;;;;5126396;27;19911;-35
2021/06/05 01:36:52;;;;;;;;;;;27.80;60.90;;;;;;5147407;27;19918;-35
2021/06/05 01:39:20;;;;;;;;;;;27.80;61.00;;;;;;5128842;27;19939;-35
2021/06/05 01:41:46;;;;;;;;;;;27.80;61.00;;;;;;5127116;27;19926;-35
2021/06/05 01:44:12;;;;;;;;;;;27.80;61.00;;;;;;5108438;28;19914;-35
2021/06/05 01:46:39;;;;;;;;;;;27.80;61.00;;;;;;5138063;27;20030;-35
2021/06/05 01:49:05;;;;;;;;;;;27.80;60.90;;;;;;5146959;27;19918;-35
2021/06/05 01:51:31;;;;;;;;;;;27.70;60.90;;;;;;5126790;27;19933;-35
2021/06/05 01:53:59;;;;;;;;;;;27.70;60.90;;;;;;5121784;28;20601;-35
2021/06/05 01:56:44;;;;;;;;;;;27.70;61.70;;;;;;5126450;28;19914;-35
2021/06/05 01:59:12;;;;;;;;;;;27.70;60.90;;;;;;5108056;28;20012;-35
2021/06/05 02:01:37;;;;;;;;;;;27.70;61.00;;;;;;5125993;28;19927;-35
2021/06/05 02:04:04;;;;;;;;;;;27.70;61.00;;;;;;5125934;28;19912;-35
2021/06/05 02:06:29;;;;;;;;;;;27.70;61.00;;;;;;5126368;28;20314;-34
2021/06/05 02:08:56;;;;;;;;;;;27.70;61.00;;;;;;5126242;28;19912;-35
2021/06/05 02:11:22;;;;;;;;;;;27.60;61.00;;;;;;5123650;27;19907;-35
2021/06/05 02:13:56;;;;;;;;;;;27.60;61.00;;;;;;5128077;27;19911;-35
2021/06/05 02:16:32;;;;;;;;;;;27.60;61.00;;;;;;5127693;27;19984;-35
2021/06/05 02:19:01;;;;;;;;;;;27.60;61.10;;;;;;5127880;27;19971;-35
2021/06/05 02:21:27;;;;;;;;;;;27.60;61.10;;;;;;5126492;27;19942;-35
2021/06/05 02:23:55;;;;;;;;;;;27.60;61.00;;;;;;5125860;28;19911;-35
2021/06/05 02:26:22;;;;;;;;;;;27.60;61.10;;;;;;5125949;28;19918;-35
2021/06/05 02:28:52;;;;;;;;;;;27.60;61.10;;;;;;5107527;28;19927;-35
2021/06/05 02:31:18;;;;;;;;;;;27.50;61.00;;;;;;5107241;28;19919;-35
2021/06/05 02:33:44;;;;;;;;;;;27.50;61.00;;;;;;5107833;27;20280;-35
2021/06/05 02:36:12;;;;;;;;;;;27.50;61.00;;;;;;5146233;27;19911;-35
2021/06/05 02:38:39;;;;;;;;;;;27.50;61.00;;;;;;5128186;27;19916;-35
2021/06/05 02:41:05;;;;;;;;;;;27.50;60.90;;;;;;5132213;27;19934;-35
2021/06/05 02:43:31;;;;;;;;;;;27.50;61.00;;;;;;5106954;28;19936;-35
2021/06/05 02:46:08;;;;;;;;;;;27.50;61.00;;;;;;5109689;28;19907;-35
2021/06/05 02:48:55;;;;;;;;;;;27.50;61.00;;;;;;5107107;28;19919;-35
2021/06/05 02:51:23;;;;;;;;;;;27.40;60.90;;;;;;5126470;27;19911;-35
2021/06/05 02:53:49;;;;;;;;;;;27.40;60.90;;;;;;5136382;27;19912;-35
2021/06/05 02:56:15;;;;;;;;;;;27.40;60.90;;;;;;5125279;28;19971;-35
2021/06/05 02:58:41;;;;;;;;;;;27.40;60.90;;;;;;5125050;28;19911;-35
2021/06/05 03:01:07;;;;;;;;;;;27.40;60.90;;;;;;5125202;28;19911;-35
2021/06/05 03:03:33;;;;;;;;;;;27.40;60.90;;;;;;5124775;28;19983;-35
2021/06/05 03:05:59;;;;;;;;;;;27.40;60.90;;;;;;5145091;27;19919;-35
2021/06/05 03:08:26;;;;;;;;;;;27.40;60.90;;;;;;5145786;27;19912;-35
2021/06/05 03:10:52;;;;;;;;;;;27.30;60.70;;;;;;5133715;27;19908;-35
2021/06/05 03:13:18;;;;;;;;;;;27.30;61.00;;;;;;5124745;28;19911;-35
2021/06/05 03:15:44;;;;;;;;;;;27.30;60.80;;;;;;5124878;28;19946;-35
2021/06/05 03:18:11;;;;;;;;;;;27.30;60.60;;;;;;5124875;28;19919;-35
2021/06/05 03:20:38;;;;;;;;;;;27.30;60.70;;;;;;5136805;27;19977;-35
2021/06/05 03:23:04;;;;;;;;;;;27.30;60.70;;;;;;5144923;27;19961;-35
2021/06/05 03:25:30;;;;;;;;;;;27.30;60.70;;;;;;5145037;27;19915;-35
2021/06/05 03:27:58;;;;;;;;;;;27.30;60.70;;;;;;5141261;27;19912;-35
2021/06/05 03:30:24;;;;;;;;;;;27.20;60.60;;;;;;5126956;27;19911;-35
2021/06/05 03:32:50;;;;;;;;;;;27.20;60.70;;;;;;5141323;27;19911;-35
2021/06/05 03:35:16;;;;;;;;;;;27.20;60.60;;;;;;5131422;27;19915;-35
2021/06/05 03:37:42;;;;;;;;;;;27.20;60.60;;;;;;5124601;28;19911;-35
2021/06/05 03:40:08;;;;;;;;;;;27.20;60.60;;;;;;5111668;27;19915;-35
2021/06/05 03:42:34;;;;;;;;;;;27.20;60.60;;;;;;5144586;27;19919;-35
2021/06/05 03:45:00;;;;;;;;;;;27.20;60.70;;;;;;5144879;27;19914;-35
2021/06/05 03:47:26;;;;;;;;;;;27.10;60.50;;;;;;5144730;27;19915;-35
2021/06/05 03:49:52;;;;;;;;;;;27.10;60.70;;;;;;5138793;27;19918;-35
2021/06/05 03:52:22;;;;;;;;;;;27.10;60.60;;;;;;5124066;28;19912;-35
2021/06/05 03:54:52;;;;;;;;;;;27.10;60.70;;;;;;5124126;28;19912;-35
2021/06/05 03:57:18;;;;;;;;;;;27.10;60.80;;;;;;5126664;27;19973;-35
2021/06/05 03:59:44;;;;;;;;;;;27.10;60.70;;;;;;5144610;27;19911;-35
2021/06/05 04:02:10;;;;;;;;;;;27.10;60.90;;;;;;5144611;27;19916;-35
2021/06/05 04:04:36;;;;;;;;;;;27.10;60.90;;;;;;5136016;27;19985;-35
2021/06/05 04:07:08;;;;;;;;;;;27.00;60.80;;;;;;5123883;28;19911;-35
2021/06/05 04:09:34;;;;;;;;;;;27.00;60.80;;;;;;5125016;27;19911;-35
2021/06/05 04:12:00;;;;;;;;;;;27.00;60.90;;;;;;5144325;27;19914;-35
2021/06/05 04:14:26;;;;;;;;;;;27.00;61.70;;;;;;5144328;27;19915;-35
2021/06/05 04:16:52;;;;;;;;;;;27.00;60.80;;;;;;5144517;27;19911;-35
2021/06/05 04:19:18;;;;;;;;;;;27.00;60.70;;;;;;5143042;27;19911;-35
2021/06/05 04:21:44;;;;;;;;;;;27.00;60.70;;;;;;5123413;28;20002;-35
2021/06/05 04:24:09;;;;;;;;;;;27.00;60.60;;;;;;5123557;28;19908;-35
2021/06/05 04:26:35;;;;;;;;;;;26.90;60.50;;;;;;5123808;28;19916;-35
2021/06/05 04:29:01;;;;;;;;;;;26.90;60.60;;;;;;5123748;28;19912;-35
2021/06/05 04:31:27;;;;;;;;;;;26.90;60.50;;;;;;5123605;28;19907;-35
2021/06/05 04:33:53;;;;;;;;;;;26.90;60.60;;;;;;5125515;28;19941;-35
2021/06/05 04:36:19;;;;;;;;;;;26.90;60.70;;;;;;5142080;28;19918;-35
2021/06/05 04:38:45;;;;;;;;;;;26.90;60.70;;;;;;5145315;27;19908;-35
2021/06/05 04:41:11;;;;;;;;;;;26.90;60.60;;;;;;5115226;28;19912;-35
2021/06/05 04:43:38;;;;;;;;;;;26.90;60.70;;;;;;5127631;28;19919;-35
2021/06/05 04:46:04;;;;;;;;;;;26.90;60.60;;;;;;5127744;28;19911;-34
2021/06/05 04:48:30;;;;;;;;;;;26.90;60.60;;;;;;5127544;28;19932;-35
2021/06/05 04:50:56;;;;;;;;;;;26.80;60.70;;;;;;5109038;28;19915;-35
2021/06/05 04:53:25;;;;;;;;;;;26.80;60.60;;;;;;5128597;27;19912;-35
2021/06/05 04:55:51;;;;;;;;;;;26.80;60.60;;;;;;5127780;28;19912;-35
2021/06/05 04:58:17;;;;;;;;;;;26.80;60.40;;;;;;5127452;28;19918;-35
2021/06/05 05:00:44;;;;;;;;;;;26.80;60.50;;;;;;5127616;28;19912;-35
2021/06/05 05:03:10;;;;;;;;;;;26.80;60.50;;;;;;5127282;28;19920;-35
2021/06/05 05:05:36;;;;;;;;;;;26.80;60.70;;;;;;5143639;27;19968;-35
2021/06/05 05:08:02;;;;;;;;;;;26.70;60.70;;;;;;5147882;27;19964;-35
2021/06/05 05:10:29;;;;;;;;;;;26.70;60.70;;;;;;5139327;27;19911;-35
2021/06/05 05:12:55;;;;;;;;;;;26.70;60.70;;;;;;5127250;28;19912;-35
2021/06/05 05:15:21;;;;;;;;;;;26.70;60.70;;;;;;5127627;27;19912;-35
2021/06/05 05:17:47;;;;;;;;;;;26.70;60.80;;;;;;5147712;27;19912;-35
2021/06/05 05:20:13;;;;;;;;;;;26.70;60.90;;;;;;5138543;27;19982;-35
2021/06/05 05:22:39;;;;;;;;;;;26.70;60.70;;;;;;5126875;28;19919;-35
2021/06/05 05:25:05;;;;;;;;;;;26.70;60.80;;;;;;5126893;28;19912;-35
2021/06/05 05:27:31;;;;;;;;;;;26.70;60.70;;;;;;5134852;27;20291;-35
2021/06/05 05:29:57;;;;;;;;;;;26.70;60.80;;;;;;5147757;27;19907;-35
2021/06/05 05:32:23;;;;;;;;;;;26.60;60.70;;;;;;5143869;27;19951;-35
2021/06/05 05:34:49;;;;;;;;;;;26.60;60.70;;;;;;5147340;27;19946;-35
2021/06/05 05:37:15;;;;;;;;;;;26.60;60.70;;;;;;5147338;27;19907;-35
2021/06/05 05:39:41;;;;;;;;;;;26.60;60.80;;;;;;5145422;27;19911;-35
2021/06/05 05:42:07;;;;;;;;;;;26.60;60.70;;;;;;5126525;28;19916;-35
2021/06/05 05:44:33;;;;;;;;;;;26.60;60.60;;;;;;5126462;28;19912;-35
2021/06/05 05:46:59;;;;;;;;;;;26.60;60.60;;;;;;5126463;28;19916;-35
2021/06/05 05:49:25;;;;;;;;;;;26.60;60.70;;;;;;5125516;28;19911;-35
2021/06/05 05:51:52;;;;;;;;;;;26.60;60.70;;;;;;5126485;28;19919;-35
2021/06/05 05:54:17;;;;;;;;;;;26.50;60.40;;;;;;5140849;27;19915;-35
2021/06/05 05:56:43;;;;;;;;;;;26.50;60.50;;;;;;5146975;27;19984;-35
2021/06/05 05:59:10;;;;;;;;;;;26.50;60.50;;;;;;5146911;27;19983;-35
2021/06/05 06:01:36;;;;;;;;;;;26.50;60.80;;;;;;5146666;27;19915;-35
2021/06/05 06:04:02;;;;;;;;;;;26.50;60.70;;;;;;5146818;27;19933;-35
2021/06/05 06:06:29;;;;;;;;;;;26.50;60.90;;;;;;5127999;27;19916;-35
2021/06/05 06:08:55;;;;;;;;;;;26.40;60.70;;;;;;5128693;27;19907;-35
2021/06/05 06:11:21;;;;;;;;;;;26.40;60.90;;;;;;5130468;27;20069;-35
2021/06/05 06:13:47;;;;;;;;;;;26.40;60.90;;;;;;5125926;28;19914;-35
2021/06/05 06:16:14;;;;;;;;;;;26.40;60.90;;;;;;5133717;27;19912;-35
2021/06/05 06:18:39;;;;;;;;;;;26.40;60.90;;;;;;5146466;27;19915;-35
2021/06/05 06:21:07;;;;;;;;;;;26.40;60.90;;;;;;5130019;27;19915;-35
2021/06/05 06:23:35;;;;;;;;;;;26.40;61.00;;;;;;5126055;28;20288;-35
2021/06/05 06:26:01;;;;;;;;;;;26.40;61.00;;;;;;5125827;28;19911;-35
2021/06/05 06:28:28;;;;;;;;;;;26.40;60.90;;;;;;5125616;28;19908;-35
2021/06/05 06:30:54;;;;;;;;;;;26.40;60.80;;;;;;5125576;28;19918;-35
2021/06/05 06:33:20;;;;;;;;;;;26.40;60.70;;;;;;5125594;28;19911;-35
2021/06/05 06:35:46;;;;;;;;;;;26.40;60.70;;;;;;5127849;27;19941;-35
2021/06/05 06:38:13;;;;;;;;;;;26.30;60.80;;;;;;5107260;28;19971;-35
2021/06/05 06:40:39;;;;;;;;;;;26.30;60.70;;;;;;5135726;27;19911;-35
2021/06/05 06:43:06;;;;;;;;;;;26.30;60.70;;;;;;5145702;27;19975;-35
2021/06/05 06:45:32;;;;;;;;;;;26.30;60.70;;;;;;5143516;27;19918;-35
2021/06/05 06:47:58;;;;;;;;;;;26.30;60.70;;;;;;5125312;28;19970;-35
2021/06/05 06:50:24;;;;;;;;;;;26.20;61.40;;;;;;5125414;28;19912;-35
2021/06/05 06:52:50;;;;;;;;;;;26.30;60.80;;;;;;5125842;27;19934;-35
2021/06/05 06:55:16;;;;;;;;;;;26.20;60.70;;;;;;5125594;27;19977;-35
2021/06/05 06:57:42;;;;;;;;;;;26.20;60.70;;;;;;5125087;28;20325;-35
2021/06/05 07:00:11;;;;;;;;;;;26.20;60.90;;;;;;5125045;28;19912;-35
2021/06/05 07:02:37;;;;;;;;;;;26.20;60.90;;;;;;5123735;28;20010;-35
2021/06/05 07:05:03;;;;;;;;;;;26.20;61.00;;;;;;5125044;28;19934;-35
2021/06/05 07:07:29;;;;;;;;;;;26.20;61.20;;;;;;5124755;28;19908;-35
2021/06/05 07:09:55;;;;;;;;;;;26.10;61.10;;;;;;5128773;27;19918;-35
2021/06/05 07:12:21;;;;;;;;;;;26.10;61.10;;;;;;5145497;27;19975;-35
2021/06/05 07:14:47;;;;;;;;;;;26.10;61.10;;;;;;5145316;27;19942;-35
2021/06/05 07:17:13;;;;;;;;;;;26.10;61.10;;;;;;5128329;27;19951;-35
2021/06/05 07:19:39;;;;;;;;;;;26.10;61.10;;;;;;5124571;28;19912;-35
2021/06/05 07:22:05;;;;;;;;;;;26.10;61.00;;;;;;5124527;28;19970;-35
2021/06/05 07:24:31;;;;;;;;;;;26.10;60.90;;;;;;5124415;28;19920;-35
2021/06/05 07:26:57;;;;;;;;;;;26.10;60.80;;;;;;5127058;27;19967;-35
2021/06/05 07:29:22;;;;;;;;;;;26.10;60.90;;;;;;5124616;28;19912;-35
2021/06/05 07:31:50;;;;;;;;;;;26.10;61.00;;;;;;5125990;27;19914;-35
2021/06/05 07:34:17;;;;;;;;;;;26.10;60.90;;;;;;5124276;28;19949;-35
2021/06/05 07:36:45;;;;;;;;;;;26.00;60.90;;;;;;5124196;28;19912;-35
2021/06/05 07:39:11;;;;;;;;;;;26.00;60.80;;;;;;5106189;28;19933;-35
2021/06/05 07:41:37;;;;;;;;;;;26.00;60.90;;;;;;5142609;27;19960;-35
2021/06/05 07:44:04;;;;;;;;;;;26.00;60.90;;;;;;5144630;27;20601;-35
2021/06/05 07:46:30;;;;;;;;;;;26.00;61.00;;;;;;5134001;27;19915;-35
2021/06/05 07:48:55;;;;;;;;;;;26.00;60.90;;;;;;5123944;28;19964;-35
2021/06/05 07:51:21;;;;;;;;;;;26.00;61.00;;;;;;5124363;28;19919;-35
2021/06/05 07:53:48;;;;;;;;;;;26.00;61.00;;;;;;5138082;27;19919;-35
2021/06/05 07:56:17;;;;;;;;;;;25.90;61.10;;;;;;5144124;27;19911;-35
2021/06/05 07:58:43;;;;;;;;;;;25.90;61.10;;;;;;5144707;27;19984;-35
2021/06/05 08:01:09;;;;;;;;;;;25.90;61.10;;;;;;5144439;27;19908;-35
2021/06/05 08:03:35;;;;;;;;;;;25.90;61.10;;;;;;5144397;27;19919;-35
2021/06/05 08:06:00;;;;;;;;;;;25.90;61.20;;;;;;5144022;27;19912;-35
2021/06/05 08:08:26;;;;;;;;;;;25.90;61.40;;;;;;5144474;27;19920;-35
2021/06/05 08:10:53;;;;;;;;;;;25.90;61.20;;;;;;5132521;27;19912;-35
2021/06/05 08:13:19;;;;;;;;;;;25.80;61.20;;;;;;5123266;28;19912;-35
2021/06/05 08:15:46;;;;;;;;;;;25.80;61.10;;;;;;5127791;27;19907;-35
2021/06/05 08:18:12;;;;;;;;;;;25.80;61.10;;;;;;5143877;27;19959;-35
2021/06/05 08:20:42;;;;;;;;;;;25.80;61.10;;;;;;5131638;27;19919;-35
2021/06/05 08:23:09;;;;;;;;;;;25.80;61.00;;;;;;5123474;28;20653;-35
2021/06/05 08:25:37;;;;;;;;;;;25.80;61.00;;;;;;5123039;28;20267;-35
2021/06/05 08:28:03;;;;;;;;;;;25.80;61.10;;;;;;5123430;28;20388;-35
2021/06/05 08:30:30;;;;;;;;;;;25.80;61.10;;;;;;5123546;28;19912;-35
2021/06/05 08:32:56;;;;;;;;;;;25.80;61.10;;;;;;5124762;28;19922;-35
2021/06/05 08:35:22;;;;;;;;;;;25.80;61.10;;;;;;5124486;28;19912;-35
2021/06/05 08:37:48;;;;;;;;;;;25.80;61.10;;;;;;5123401;28;19997;-35
2021/06/05 08:40:15;;;;;;;;;;;25.70;61.00;;;;;;5130244;28;19965;-35
2021/06/05 08:42:47;;;;;;;;;;;25.70;61.00;;;;;;5143786;28;19950;-35
2021/06/05 08:45:13;;;;;;;;;;;25.70;61.10;;;;;;5143930;28;19933;-35
2021/06/05 08:47:39;;;;;;;;;;;25.70;61.20;;;;;;5104903;28;19911;-35
2021/06/05 08:50:06;;;;;;;;;;;25.70;61.30;;;;;;5131087;28;19911;-35
2021/06/05 08:52:49;;;;;;;;;;;25.70;61.30;;;;;;5142235;28;19912;-35
2021/06/05 08:55:18;;;;;;;;;;;25.70;61.30;;;;;;5119310;28;19947;-35
2021/06/05 08:57:44;;;;;;;;;;;25.70;61.30;;;;;;5122748;28;19912;-35
2021/06/05 09:00:12;;;;;;;;;;;25.60;61.20;;;;;;5138953;28;19955;-35
2021/06/05 09:02:38;;;;;;;;;;;25.60;61.30;;;;;;5143629;28;19926;-35
2021/06/05 09:05:05;;;;;;;;;;;25.60;61.30;;;;;;5125430;28;19971;-35
2021/06/05 09:07:30;;;;;;;;;;;25.60;61.20;;;;;;5143883;28;20271;-35
2021/06/05 09:09:56;;;;;;;;;;;25.60;61.20;;;;;;5139475;28;19916;-35
2021/06/05 09:12:22;;;;;;;;;;;25.60;61.20;;;;;;5122991;28;19912;-35
2021/06/05 09:14:50;;;;;;;;;;;25.60;61.20;;;;;;5122985;28;19912;-35
2021/06/05 09:17:20;;;;;;;;;;;25.60;61.20;;;;;;5122805;28;19915;-35
2021/06/05 09:20:04;;;;;;;;;;;25.60;61.30;;;;;;5122971;28;19915;-36
2021/06/05 09:22:38;;;;;;;;;;;25.60;61.20;;;;;;5122776;28;19920;-35
2021/06/05 09:25:19;;;;;;;;;;;25.60;61.30;;;;;;5123679;28;19915;-35
2021/06/05 09:27:45;;;;;;;;;;;25.60;61.30;;;;;;5129303;27;19908;-36
2021/06/05 09:30:33;;;;;;;;;;;25.50;61.20;;;;;;5126753;28;19935;-35
2021/06/05 09:33:02;;;;;;;;;;;25.50;61.20;;;;;;5108732;28;19907;-35
2021/06/05 09:35:32;;;;;;;;;;;25.50;61.20;;;;;;5126484;28;19911;-35
2021/06/05 09:38:17;;;;;;;;;;;25.50;61.20;;;;;;5126754;28;19912;-35
2021/06/05 09:41:01;;;;;;;;;;;25.50;61.40;;;;;;5136914;27;19915;-35
2021/06/05 09:43:27;;;;;;;;;;;25.50;61.40;;;;;;5145596;27;19915;-35
2021/06/05 09:46:04;;;;;;;;;;;25.50;61.40;;;;;;5141588;27;19961;-34
2021/06/05 09:48:32;;;;;;;;;;;25.40;61.50;;;;;;5126232;28;19943;-35
2021/06/05 09:50:59;;;;;;;;;;;25.40;61.50;;;;;;5126308;28;19937;-35
2021/06/05 09:53:33;;;;;;;;;;;25.40;61.50;;;;;;5107986;28;19911;-35
2021/06/05 09:56:00;;;;;;;;;;;25.40;61.40;;;;;;5113616;27;19911;-35
2021/06/05 09:58:41;;;;;;;;;;;25.40;61.40;;;;;;5137624;27;19911;-35
2021/06/05 10:01:26;;;;;;;;;;;25.40;61.40;;;;;;5146701;27;19959;-35
2021/06/05 10:03:56;;;;;;;;;;;25.40;61.40;;;;;;5146545;27;19940;-34
2021/06/05 10:06:41;;;;;;;;;;;25.40;61.40;;;;;;5127697;27;19911;-35
2021/06/05 10:09:25;;;;;;;;;;;25.40;61.40;;;;;;5146649;27;19936;-34
2021/06/05 10:11:58;;;;;;;;;;;25.40;61.40;;;;;;5126005;27;19908;-35
2021/06/05 10:14:31;;;;;;;;;;;25.40;61.40;;;;;;5107573;28;19912;-35
2021/06/05 10:17:01;;;;;;;;;;;25.30;61.40;;;;;;5121480;27;19907;-35
2021/06/05 10:19:30;;;;;;;;;;;25.30;61.40;;;;;;5143753;27;19908;-35
2021/06/05 10:21:56;;;;;;;;;;;25.30;61.40;;;;;;5107221;28;19924;-35
2021/06/05 10:24:35;;;;;;;;;;;25.30;61.40;;;;;;5125622;28;20387;-35
2021/06/05 10:27:04;;;;;;;;;;;25.30;61.40;;;;;;5106994;28;19919;-36
2021/06/05 10:29:34;;;;;;;;;;;25.30;61.50;;;;;;5125541;28;20382;-36
2021/06/05 10:32:01;;;;;;;;;;;25.30;61.50;;;;;;5110262;28;20434;-35
2021/06/05 10:34:32;;;;;;;;;;;25.30;61.60;;;;;;5125446;28;19912;-35
2021/06/05 10:36:58;;;;;;;;;;;25.20;61.60;;;;;;5125062;28;19978;-35
2021/06/05 10:39:33;;;;;;;;;;;25.20;61.70;;;;;;5125324;28;20010;-35
2021/06/05 10:42:03;;;;;;;;;;;25.20;61.70;;;;;;5125463;28;20044;-35
2021/06/05 10:44:29;;;;;;;;;;;25.20;61.70;;;;;;5125533;28;19965;-35
2021/06/05 10:47:13;;;;;;;;;;;25.20;61.70;;;;;;5139199;27;19919;-35
2021/06/05 10:49:46;;;;;;;;;;;25.20;61.60;;;;;;5141586;27;19957;-35
2021/06/05 10:52:25;;;;;;;;;;;25.20;61.60;;;;;;5125150;28;19915;-35
2021/06/05 10:54:52;;;;;;;;;;;25.20;61.60;;;;;;5112146;28;19912;-35
2021/06/05 10:57:18;;;;;;;;;;;25.20;61.60;;;;;;5126903;27;19982;-35
2021/06/05 11:00:00;;;;;;;;;;;25.20;61.60;;;;;;5145569;27;19912;-35
2021/06/05 11:02:48;;;;;;;;;;;25.20;61.60;;;;;;5145459;27;19920;-36
2021/06/05 11:05:17;;;;;;;;;;;25.20;61.60;;;;;;5145529;27;19911;-35
2021/06/05 11:07:43;;;;;;;;;;;25.20;61.60;;;;;;5132413;27;20015;-35
2021/06/05 11:10:09;;;;;;;;;;;25.10;61.50;;;;;;5130508;27;19911;-35
2021/06/05 11:12:35;;;;;;;;;;;25.10;61.60;;;;;;5145516;27;20480;-35
2021/06/05 11:15:00;;;;;;;;;;;25.10;61.60;;;;;;5145434;27;19912;-35
2021/06/05 11:17:28;;;;;;;;;;;25.10;61.50;;;;;;5145196;27;19915;-35
2021/06/05 11:20:14;;;;;;;;;;;25.10;61.50;;;;;;5139004;27;19947;-35
2021/06/05 11:22:52;;;;;;;;;;;25.10;61.60;;;;;;5124163;28;20018;-36
2021/06/05 11:25:30;;;;;;;;;;;25.10;61.70;;;;;;5124639;28;19935;-35
2021/06/05 11:27:56;;;;;;;;;;;25.00;61.70;;;;;;5124567;28;20365;-36
2021/06/05 11:30:22;;;;;;;;;;;25.00;61.70;;;;;;5132503;27;19912;-36
2021/06/05 11:32:54;;;;;;;;;;;25.00;61.80;;;;;;5126500;27;19963;-36
2021/06/05 11:35:34;;;;;;;;;;;25.00;61.80;;;;;;5136744;27;19943;-36
2021/06/05 11:38:01;;;;;;;;;;;25.00;61.70;;;;;;5119994;27;19915;-36
2021/06/05 11:40:43;;;;;;;;;;;25.00;61.80;;;;;;5136416;27;20444;-35
2021/06/05 11:43:19;;;;;;;;;;;25.00;61.70;;;;;;5124298;28;19915;-35
2021/06/05 11:46:04;;;;;;;;;;;25.00;61.70;;;;;;5124309;28;19990;-35
2021/06/05 11:48:48;;;;;;;;;;;25.00;61.70;;;;;;5123653;28;19915;-35
2021/06/05 11:51:25;;;;;;;;;;;25.00;62.40;;;;;;5124156;28;19912;-35
2021/06/05 11:53:52;;;;;;;;;;;25.00;61.70;;;;;;5123972;28;19908;-35
2021/06/05 11:56:25;;;;;;;;;;;25.00;61.70;;;;;;5110831;27;19918;-35
2021/06/05 11:58:52;;;;;;;;;;;25.00;61.70;;;;;;5137875;27;19932;-35
2021/06/05 12:01:28;;;;;;;;;;;25.00;61.70;;;;;;5144606;27;19938;-35
2021/06/05 12:03:53;;;;;;;;;;;25.00;61.80;;;;;;5126022;27;19920;-35
2021/06/05 12:06:25;;;;;;;;;;;25.00;61.80;;;;;;5144106;27;19907;-35
2021/06/05 12:09:02;;;;;;;;;;;25.00;61.80;;;;;;5123824;28;19936;-35
2021/06/05 12:11:33;;;;;;;;;;;24.90;61.90;;;;;;5140974;27;19933;-36
2021/06/05 12:14:20;;;;;;;;;;;24.90;61.90;;;;;;5126013;27;19915;-36
2021/06/05 12:16:50;;;;;;;;;;;24.90;62.00;;;;;;5126178;27;19939;-35
2021/06/05 12:19:16;;;;;;;;;;;24.90;62.00;;;;;;5143381;27;19908;-35
2021/06/05 12:21:42;;;;;;;;;;;24.90;62.00;;;;;;5123478;28;19926;-35
2021/06/05 12:24:18;;;;;;;;;;;24.90;62.00;;;;;;5124094;28;19922;-35
2021/06/05 12:26:45;;;;;;;;;;;24.90;62.00;;;;;;5105163;28;20467;-35
2021/06/05 12:29:12;;;;;;;;;;;24.90;62.00;;;;;;5123460;28;19911;-35
2021/06/05 12:31:41;;;;;;;;;;;24.90;62.00;;;;;;5123608;28;19937;-35
2021/06/05 12:34:08;;;;;;;;;;;24.90;62.00;;;;;;5123795;28;19912;-35
2021/06/05 12:36:41;;;;;;;;;;;24.90;62.00;;;;;;5125836;28;19919;-35
2021/06/05 12:39:18;;;;;;;;;;;24.90;62.00;;;;;;5143857;28;19911;-35
2021/06/05 12:41:44;;;;;;;;;;;24.90;62.00;;;;;;5124689;28;20338;-35
2021/06/05 12:44:20;;;;;;;;;;;24.90;61.90;;;;;;5105126;28;19912;-35
2021/06/05 12:46:46;;;;;;;;;;;25.00;62.00;;;;;;5105363;28;19912;-35
2021/06/05 12:49:16;;;;;;;;;;;24.90;61.90;;;;;;5104992;28;20548;-35
2021/06/05 12:51:49;;;;;;;;;;;24.90;61.90;;;;;;5105499;28;19908;-35
2021/06/05 12:54:34;;;;;;;;;;;24.90;61.90;;;;;;5110659;28;19968;-35
2021/06/05 12:57:18;;;;;;;;;;;24.90;62.00;;;;;;5144092;28;19915;-35
2021/06/05 12:59:44;;;;;;;;;;;24.90;62.00;;;;;;5146241;27;19908;-35
2021/06/05 13:02:20;;;;;;;;;;;24.90;62.10;;;;;;5147977;27;19926;-35
2021/06/05 13:04:47;;;;;;;;;;;25.00;62.10;;;;;;5147819;27;20731;-36
2021/06/05 13:07:13;;;;;;;;;;;24.90;62.00;;;;;;5139819;27;19979;-36
2021/06/05 13:09:44;;;;;;;;;;;24.90;62.10;;;;;;5129059;27;19919;-35
2021/06/05 13:12:19;;;;;;;;;;;25.00;62.20;;;;;;5147897;27;19953;-35
2021/06/05 13:14:44;;;;;;;;;;;25.00;62.20;;;;;;5147721;27;19915;-35
2021/06/05 13:17:15;;;;;;;;;;;25.00;62.10;;;;;;5147669;27;19911;-35
2021/06/05 13:19:41;;;;;;;;;;;25.00;62.10;;;;;;5143185;27;19934;-36
2021/06/05 13:22:16;;;;;;;;;;;25.00;62.10;;;;;;5108372;28;19928;-35
2021/06/05 13:25:01;;;;;;;;;;;25.00;62.10;;;;;;5126991;28;19999;-35
2021/06/05 13:27:27;;;;;;;;;;;25.00;62.10;;;;;;5126676;28;19916;-34
2021/06/05 13:29:53;;;;;;;;;;;25.00;62.10;;;;;;5130276;27;19912;-35
2021/06/05 13:32:25;;;;;;;;;;;25.00;62.10;;;;;;5126938;28;19911;-35
2021/06/05 13:34:50;;;;;;;;;;;25.00;62.10;;;;;;5126677;28;19915;-35
2021/06/05 13:37:22;;;;;;;;;;;25.00;62.10;;;;;;5135035;27;19915;-35
2021/06/05 13:39:49;;;;;;;;;;;25.00;62.10;;;;;;5143995;27;19979;-35
2021/06/05 13:42:15;;;;;;;;;;;25.00;62.10;;;;;;5126671;28;20374;-35
2021/06/05 13:44:41;;;;;;;;;;;25.00;62.20;;;;;;5126614;28;19912;-35
2021/06/05 13:47:08;;;;;;;;;;;25.10;62.20;;;;;;5126606;28;19912;-36
2021/06/05 13:49:34;;;;;;;;;;;25.00;62.20;;;;;;5126477;28;19971;-35
2021/06/05 13:52:02;;;;;;;;;;;25.10;62.20;;;;;;5127970;27;19911;-35
2021/06/05 13:54:28;;;;;;;;;;;25.10;62.10;;;;;;5118429;27;19956;-35
2021/06/05 13:56:53;;;;;;;;;;;25.10;62.20;;;;;;5147010;27;19911;-35
2021/06/05 13:59:19;;;;;;;;;;;25.10;62.10;;;;;;5146728;27;19911;-36
2021/06/05 14:01:45;;;;;;;;;;;25.10;62.10;;;;;;5146963;27;19922;-35
2021/06/05 14:04:11;;;;;;;;;;;25.20;62.20;;;;;;5146689;27;19916;-35
2021/06/05 14:06:37;;;;;;;;;;;25.20;62.30;;;;;;5144092;27;20573;-35
2021/06/05 14:09:03;;;;;;;;;;;25.20;62.20;;;;;;5125795;28;19964;-35
2021/06/05 14:11:30;;;;;;;;;;;25.20;62.20;;;;;;5142730;27;19908;-35
2021/06/05 14:13:56;;;;;;;;;;;25.20;62.30;;;;;;5146862;27;19915;-35
2021/06/05 14:16:22;;;;;;;;;;;25.20;62.40;;;;;;5143362;27;19911;-35
2021/06/05 14:18:48;;;;;;;;;;;25.30;62.60;;;;;;5146245;27;19919;-35
2021/06/05 14:21:14;;;;;;;;;;;25.30;62.40;;;;;;5128791;27;19912;-35
2021/06/05 14:23:40;;;;;;;;;;;25.30;62.50;;;;;;5125812;28;19926;-36